Costa Serena — ICAZ — position and weather

sailwx.info

Track history (hours):
 
Tides and Currents Weather Stations Pressure Air Temp Water Temp Dewpoint Dewpoint Depression Visibility Wind Speed Wind Dir Waves Ship Positions

Costa Serena

Last reported at 2017-Feb-21 11:33 UTC. Time now 2017-Feb-23 02:32 UTC.
Position N 31°21' E 121°40'.

Length 290 m; draft 8.3 m.

Type: Ship. MMSI: 247187600.

Date/timePositionNaut miles runAvg speedWind from/ knotsBaromVisibWave heightAir tempDewpointWater temp
2017-Feb-21 11:33N 31°21' E 121°40'9 8.7
2017-Feb-21 10:31N 31°25' E 121°30'0 0.0
2017-Feb-21 09:31N 31°25' E 121°30'0 0.0
2017-Feb-21 08:33N 31°25' E 121°30'0 0.0
2017-Feb-21 07:33N 31°25' E 121°30'0 0.0
2017-Feb-21 06:33N 31°25' E 121°30'0 0.0
2017-Feb-21 05:32N 31°25' E 121°30'0 0.0
2017-Feb-21 04:29N 31°25' E 121°30'0 0.0
2017-Feb-21 03:28N 31°25' E 121°30'0 0.0
2017-Feb-21 02:28N 31°25' E 121°30'0 0.0
2017-Feb-21 01:33N 31°25' E 121°30'0 0.0
2017-Feb-21 00:30N 31°25' E 121°30'1 0.6
2017-Feb-20 23:34N 31°25' E 121°31'1110.7
2017-Feb-20 22:33N 31°20' E 121°42'2510.4
2017-Feb-20 20:07N 31°12' E 122°09'5 8.9
2017-Feb-20 19:33N 31°09' E 122°14'1010.2
2017-Feb-20 18:33N 31°07' E 122°26'  
2017-Feb-17 17:21N 31°32' E 123°31'1619.4
2017-Feb-17 16:33N 31°21' E 123°19'3617.7
2017-Feb-17 14:30N 31°05' E 122°41'1313.5
2017-Feb-17 13:33N 31°05' E 122°26'10 9.7
2017-Feb-17 12:32N 31°08' E 122°15'1313.0
2017-Feb-17 11:34N 31°14' E 122°02'1413.7
2017-Feb-17 10:33N 31°18' E 121°46'1212.4
2017-Feb-17 09:33N 31°24' E 121°33'3 2.7
2017-Feb-17 08:31N 31°25' E 121°30'0 0.0
2017-Feb-17 07:30N 31°25' E 121°30'0 0.0
2017-Feb-17 06:30N 31°25' E 121°30'0 0.0
2017-Feb-17 05:33N 31°25' E 121°30'0 0.1
2017-Feb-17 04:33N 31°25' E 121°30'6 6.1
2017-Feb-17 03:33N 31°30' E 121°26'1 0.8
2017-Feb-17 02:32N 31°30' E 121°25'0 0.0
2017-Feb-17 01:28N 31°30' E 121°25'1 1.4
2017-Feb-17 00:34N 31°31' E 121°26'9 9.2
2017-Feb-16 23:33N 31°31' E 121°37'10 9.6
2017-Feb-16 22:33N 31°35' E 121°27'0 0.4
2017-Feb-16 21:32N 31°36' E 121°27'0 0.0
2017-Feb-16 20:32N 31°36' E 121°27'0 0.0
2017-Feb-16 19:25N 31°36' E 121°27'0 0.0
2017-Feb-16 18:31N 31°36' E 121°27'0 0.0
2017-Feb-16 17:31N 31°36' E 121°27'0 0.0
2017-Feb-16 16:33N 31°36' E 121°27'0 0.0
2017-Feb-16 15:30N 31°36' E 121°27'0 0.0
2017-Feb-16 14:32N 31°36' E 121°27'0 0.0
2017-Feb-16 13:32N 31°36' E 121°27'0 0.0
2017-Feb-16 12:28N 31°36' E 121°27'0 0.0
2017-Feb-16 11:31N 31°36' E 121°27'0 0.0
2017-Feb-16 10:34N 31°36' E 121°27'0 0.0
2017-Feb-16 09:33N 31°36' E 121°27'0 0.0
2017-Feb-16 08:33N 31°36' E 121°27'0 0.0
2017-Feb-16 07:32N 31°36' E 121°27'0 0.0
2017-Feb-16 06:29N 31°36' E 121°27'0 0.0
2017-Feb-16 05:31N 31°36' E 121°27'0 0.0
2017-Feb-16 04:31N 31°36' E 121°27'0 0.0
2017-Feb-16 03:31N 31°36' E 121°27'0 0.0
2017-Feb-16 02:33N 31°36' E 121°27'0 0.0
2017-Feb-16 01:33N 31°36' E 121°27'0 0.0
2017-Feb-16 00:33N 31°36' E 121°27'0 0.0
2017-Feb-15 23:33N 31°36' E 121°27'0 0.0
2017-Feb-15 22:32N 31°36' E 121°27'0 0.0
2017-Feb-15 21:32N 31°36' E 121°27'0 0.0
2017-Feb-15 20:33N 31°36' E 121°27'0 0.0
2017-Feb-15 19:31N 31°36' E 121°27'0 0.0
2017-Feb-15 18:33N 31°36' E 121°27'0 0.0
2017-Feb-15 17:33N 31°36' E 121°27'0 0.0
2017-Feb-15 16:29N 31°36' E 121°27'0 0.0
2017-Feb-15 15:32N 31°36' E 121°27'0 0.0
2017-Feb-15 14:32N 31°36' E 121°27'0 0.0
2017-Feb-15 13:31N 31°36' E 121°27'0 0.0
2017-Feb-15 12:31N 31°36' E 121°27'0 0.0
2017-Feb-15 11:33N 31°36' E 121°27'0 0.0
2017-Feb-15 10:33N 31°36' E 121°27'0 0.0
2017-Feb-15 09:33N 31°36' E 121°27'0 0.0
2017-Feb-15 08:32N 31°36' E 121°27'0 0.0
2017-Feb-15 07:32N 31°36' E 121°27'0 0.0
2017-Feb-15 06:25N 31°36' E 121°27'0 0.0
2017-Feb-15 05:31N 31°36' E 121°27'0 0.0
2017-Feb-15 04:33N 31°36' E 121°27'0 0.0
2017-Feb-15 03:30N 31°36' E 121°27'0 0.0
2017-Feb-15 02:33N 31°36' E 121°27'0 0.0
2017-Feb-15 01:32N 31°36' E 121°27'0 0.0
2017-Feb-15 00:32N 31°36' E 121°27'0 0.0
2017-Feb-14 23:31N 31°36' E 121°27'0 0.0
2017-Feb-14 22:31N 31°36' E 121°27'0 0.0
2017-Feb-14 21:33N 31°36' E 121°27'0 0.0
2017-Feb-14 20:33N 31°36' E 121°27'0 0.0
2017-Feb-14 19:33N 31°36' E 121°27'0 0.0
2017-Feb-14 18:32N 31°36' E 121°27'0 0.0
2017-Feb-14 17:32N 31°36' E 121°27'0 0.0
2017-Feb-14 16:31N 31°36' E 121°27'0 0.0
2017-Feb-14 15:31N 31°36' E 121°27'0 0.0
2017-Feb-14 14:33N 31°36' E 121°27'0 0.0
2017-Feb-14 13:33N 31°36' E 121°27'0 0.0
2017-Feb-14 12:33N 31°36' E 121°27'0 0.0
2017-Feb-14 11:29N 31°36' E 121°27'0 0.0
2017-Feb-14 10:32N 31°36' E 121°27'0 0.0
2017-Feb-14 09:31N 31°36' E 121°27'0 0.0
2017-Feb-14 08:31N 31°36' E 121°27'0 0.0
2017-Feb-14 07:33N 31°36' E 121°27'0 0.0
2017-Feb-14 06:33N 31°36' E 121°27'0 0.0
2017-Feb-14 05:33N 31°36' E 121°27'0 0.0
2017-Feb-14 04:32N 31°36' E 121°27'0 0.0
2017-Feb-14 03:32N 31°36' E 121°27'0 0.0
2017-Feb-14 02:31N 31°36' E 121°27'0 0.0
2017-Feb-14 01:31N 31°36' E 121°27'0 0.0
2017-Feb-14 00:33N 31°36' E 121°27'0 0.0
2017-Feb-13 23:33N 31°36' E 121°27'0 0.0
2017-Feb-13 22:33N 31°36' E 121°27'0 0.0
2017-Feb-13 21:32N 31°36' E 121°27'0 0.0
2017-Feb-13 20:32N 31°36' E 121°27'0 0.0
2017-Feb-13 19:31N 31°36' E 121°27'0 0.0
2017-Feb-13 18:31N 31°36' E 121°27'0 0.0
2017-Feb-13 17:33N 31°36' E 121°27'0 0.0
2017-Feb-13 16:33N 31°36' E 121°27'0 0.0
2017-Feb-13 15:30N 31°36' E 121°27'0 0.0
2017-Feb-13 14:32N 31°36' E 121°27'0 0.0
2017-Feb-13 13:29N 31°36' E 121°27'0 0.0
2017-Feb-13 12:31N 31°36' E 121°27'0 0.0
2017-Feb-13 11:31N 31°36' E 121°27'0 0.0
2017-Feb-13 10:31N 31°36' E 121°27'0 0.0
2017-Feb-13 09:33N 31°36' E 121°27'0 0.0
2017-Feb-13 08:33N 31°36' E 121°27'0 0.0
2017-Feb-13 07:29N 31°36' E 121°27'0 0.0
2017-Feb-13 06:32N 31°36' E 121°27'0 0.0
2017-Feb-13 05:31N 31°36' E 121°27'0 0.0
2017-Feb-13 04:32N 31°36' E 121°27'0 0.0
2017-Feb-13 03:33N 31°36' E 121°27'0 0.0
2017-Feb-13 02:33N 31°36' E 121°27'0 0.0
2017-Feb-13 01:33N 31°36' E 121°27'0 0.0
2017-Feb-13 00:32N 31°36' E 121°27'0 0.1
2017-Feb-12 23:32N 31°36' E 121°27'0 0.0
2017-Feb-12 22:31N 31°36' E 121°27'0 0.1
2017-Feb-12 21:31N 31°36' E 121°27'0 0.0
2017-Feb-12 20:33N 31°36' E 121°27'0 0.0
2017-Feb-12 19:33N 31°36' E 121°27'0 0.0
2017-Feb-12 18:33N 31°36' E 121°27'0 0.0
2017-Feb-12 17:32N 31°36' E 121°27'0 0.0
2017-Feb-12 16:32N 31°36' E 121°27'0 0.0
2017-Feb-12 15:31N 31°36' E 121°27'0 0.0
2017-Feb-12 14:31N 31°36' E 121°27'0 0.0
2017-Feb-12 13:31N 31°36' E 121°27'0 0.0
2017-Feb-12 12:33N 31°36' E 121°27'0 0.0
2017-Feb-12 11:33N 31°36' E 121°27'0 0.0
2017-Feb-12 10:29N 31°36' E 121°27'0 0.0
2017-Feb-12 09:32N 31°36' E 121°27'0 0.0
2017-Feb-12 08:31N 31°36' E 121°27'0 0.0
2017-Feb-12 07:28N 31°36' E 121°27'0 0.0
2017-Feb-12 06:31N 31°36' E 121°27'0 0.0
2017-Feb-12 05:33N 31°36' E 121°27'0 0.0
2017-Feb-12 04:33N 31°36' E 121°27'0 0.0
2017-Feb-12 03:29N 31°36' E 121°27'0 0.0
2017-Feb-12 02:29N 31°36' E 121°27'0 0.0
2017-Feb-12 01:31N 31°36' E 121°27'0 0.0
2017-Feb-12 00:31N 31°36' E 121°27'0 0.0
2017-Feb-11 23:33N 31°36' E 121°27'0 0.0
2017-Feb-11 22:33N 31°36' E 121°27'0 0.0
2017-Feb-11 21:33N 31°36' E 121°27'0 0.0
2017-Feb-11 20:32N 31°36' E 121°27'0 0.0
2017-Feb-11 19:32N 31°36' E 121°27'0 0.0
2017-Feb-11 18:31N 31°36' E 121°27'0 0.0
2017-Feb-11 17:31N 31°36' E 121°27'0 0.0
2017-Feb-11 16:34N 31°36' E 121°27'0 0.0
2017-Feb-11 15:33N 31°36' E 121°27'0 0.0
2017-Feb-11 14:33N 31°36' E 121°27'0 0.0
2017-Feb-11 13:32N 31°36' E 121°27'0 0.0
2017-Feb-11 12:32N 31°36' E 121°27'  
Track history (hours):
 
Tides and Currents Weather Stations Pressure Air Temp Water Temp Dewpoint Dewpoint Depression Visibility Wind Speed Wind Dir Waves Ship Positions

Costa Serena

Last reported at 2017-Feb-21 11:33 UTC. Time now 2017-Feb-23 02:32 UTC.
Position N 31°21' E 121°40'.

Length 290 m; draft 8.3 m.

Type: Ship. MMSI: 247187600.

Date/timePositionNaut miles runAvg speedWind from/ knotsBaromVisibWave heightAir tempDewpointWater temp
2017-Feb-21 11:33N 31°21' E 121°40'9 8.7
2017-Feb-21 10:31N 31°25' E 121°30'0 0.0
2017-Feb-21 09:31N 31°25' E 121°30'0 0.0
2017-Feb-21 08:33N 31°25' E 121°30'0 0.0
2017-Feb-21 07:33N 31°25' E 121°30'0 0.0
2017-Feb-21 06:33N 31°25' E 121°30'0 0.0
2017-Feb-21 05:32N 31°25' E 121°30'0 0.0
2017-Feb-21 04:29N 31°25' E 121°30'0 0.0
2017-Feb-21 03:28N 31°25' E 121°30'0 0.0
2017-Feb-21 02:28N 31°25' E 121°30'0 0.0
2017-Feb-21 01:33N 31°25' E 121°30'0 0.0
2017-Feb-21 00:30N 31°25' E 121°30'1 0.6
2017-Feb-20 23:34N 31°25' E 121°31'1110.7
2017-Feb-20 22:33N 31°20' E 121°42'2510.4
2017-Feb-20 20:07N 31°12' E 122°09'5 8.9
2017-Feb-20 19:33N 31°09' E 122°14'1010.2
2017-Feb-20 18:33N 31°07' E 122°26'  
2017-Feb-17 17:21N 31°32' E 123°31'1619.4
2017-Feb-17 16:33N 31°21' E 123°19'3617.7
2017-Feb-17 14:30N 31°05' E 122°41'1313.5
2017-Feb-17 13:33N 31°05' E 122°26'10 9.7
2017-Feb-17 12:32N 31°08' E 122°15'1313.0
2017-Feb-17 11:34N 31°14' E 122°02'1413.7
2017-Feb-17 10:33N 31°18' E 121°46'1212.4
2017-Feb-17 09:33N 31°24' E 121°33'3 2.7
2017-Feb-17 08:31N 31°25' E 121°30'0 0.0
2017-Feb-17 07:30N 31°25' E 121°30'0 0.0
2017-Feb-17 06:30N 31°25' E 121°30'0 0.0
2017-Feb-17 05:33N 31°25' E 121°30'0 0.1
2017-Feb-17 04:33N 31°25' E 121°30'6 6.1
2017-Feb-17 03:33N 31°30' E 121°26'1 0.8
2017-Feb-17 02:32N 31°30' E 121°25'0 0.0
2017-Feb-17 01:28N 31°30' E 121°25'1 1.4
2017-Feb-17 00:34N 31°31' E 121°26'9 9.2
2017-Feb-16 23:33N 31°31' E 121°37'10 9.6
2017-Feb-16 22:33N 31°35' E 121°27'0 0.4
2017-Feb-16 21:32N 31°36' E 121°27'0 0.0
2017-Feb-16 20:32N 31°36' E 121°27'0 0.0
2017-Feb-16 19:25N 31°36' E 121°27'0 0.0
2017-Feb-16 18:31N 31°36' E 121°27'0 0.0
2017-Feb-16 17:31N 31°36' E 121°27'0 0.0
2017-Feb-16 16:33N 31°36' E 121°27'0 0.0
2017-Feb-16 15:30N 31°36' E 121°27'0 0.0
2017-Feb-16 14:32N 31°36' E 121°27'0 0.0
2017-Feb-16 13:32N 31°36' E 121°27'0 0.0
2017-Feb-16 12:28N 31°36' E 121°27'0 0.0
2017-Feb-16 11:31N 31°36' E 121°27'0 0.0
2017-Feb-16 10:34N 31°36' E 121°27'0 0.0
2017-Feb-16 09:33N 31°36' E 121°27'0 0.0
2017-Feb-16 08:33N 31°36' E 121°27'0 0.0
2017-Feb-16 07:32N 31°36' E 121°27'0 0.0
2017-Feb-16 06:29N 31°36' E 121°27'0 0.0
2017-Feb-16 05:31N 31°36' E 121°27'0 0.0
2017-Feb-16 04:31N 31°36' E 121°27'0 0.0
2017-Feb-16 03:31N 31°36' E 121°27'0 0.0
2017-Feb-16 02:33N 31°36' E 121°27'0 0.0
2017-Feb-16 01:33N 31°36' E 121°27'0 0.0
2017-Feb-16 00:33N 31°36' E 121°27'0 0.0
2017-Feb-15 23:33N 31°36' E 121°27'0 0.0
2017-Feb-15 22:32N 31°36' E 121°27'0 0.0
2017-Feb-15 21:32N 31°36' E 121°27'0 0.0
2017-Feb-15 20:33N 31°36' E 121°27'0 0.0
2017-Feb-15 19:31N 31°36' E 121°27'0 0.0
2017-Feb-15 18:33N 31°36' E 121°27'0 0.0
2017-Feb-15 17:33N 31°36' E 121°27'0 0.0
2017-Feb-15 16:29N 31°36' E 121°27'0 0.0
2017-Feb-15 15:32N 31°36' E 121°27'0 0.0
2017-Feb-15 14:32N 31°36' E 121°27'0 0.0
2017-Feb-15 13:31N 31°36' E 121°27'0 0.0
2017-Feb-15 12:31N 31°36' E 121°27'0 0.0
2017-Feb-15 11:33N 31°36' E 121°27'0 0.0
2017-Feb-15 10:33N 31°36' E 121°27'0 0.0
2017-Feb-15 09:33N 31°36' E 121°27'0 0.0
2017-Feb-15 08:32N 31°36' E 121°27'0 0.0
2017-Feb-15 07:32N 31°36' E 121°27'0 0.0
2017-Feb-15 06:25N 31°36' E 121°27'0 0.0
2017-Feb-15 05:31N 31°36' E 121°27'0 0.0
2017-Feb-15 04:33N 31°36' E 121°27'0 0.0
2017-Feb-15 03:30N 31°36' E 121°27'0 0.0
2017-Feb-15 02:33N 31°36' E 121°27'0 0.0
2017-Feb-15 01:32N 31°36' E 121°27'0 0.0
2017-Feb-15 00:32N 31°36' E 121°27'0 0.0
2017-Feb-14 23:31N 31°36' E 121°27'0 0.0
2017-Feb-14 22:31N 31°36' E 121°27'0 0.0
2017-Feb-14 21:33N 31°36' E 121°27'0 0.0
2017-Feb-14 20:33N 31°36' E 121°27'0 0.0
2017-Feb-14 19:33N 31°36' E 121°27'0 0.0
2017-Feb-14 18:32N 31°36' E 121°27'0 0.0
2017-Feb-14 17:32N 31°36' E 121°27'0 0.0
2017-Feb-14 16:31N 31°36' E 121°27'0 0.0
2017-Feb-14 15:31N 31°36' E 121°27'0 0.0
2017-Feb-14 14:33N 31°36' E 121°27'0 0.0
2017-Feb-14 13:33N 31°36' E 121°27'0 0.0
2017-Feb-14 12:33N 31°36' E 121°27'0 0.0
2017-Feb-14 11:29N 31°36' E 121°27'0 0.0
2017-Feb-14 10:32N 31°36' E 121°27'0 0.0
2017-Feb-14 09:31N 31°36' E 121°27'0 0.0
2017-Feb-14 08:31N 31°36' E 121°27'0 0.0
2017-Feb-14 07:33N 31°36' E 121°27'0 0.0
2017-Feb-14 06:33N 31°36' E 121°27'0 0.0
2017-Feb-14 05:33N 31°36' E 121°27'0 0.0
2017-Feb-14 04:32N 31°36' E 121°27'0 0.0
2017-Feb-14 03:32N 31°36' E 121°27'0 0.0
2017-Feb-14 02:31N 31°36' E 121°27'0 0.0
2017-Feb-14 01:31N 31°36' E 121°27'0 0.0
2017-Feb-14 00:33N 31°36' E 121°27'0 0.0
2017-Feb-13 23:33N 31°36' E 121°27'0 0.0
2017-Feb-13 22:33N 31°36' E 121°27'0 0.0
2017-Feb-13 21:32N 31°36' E 121°27'0 0.0
2017-Feb-13 20:32N 31°36' E 121°27'0 0.0
2017-Feb-13 19:31N 31°36' E 121°27'0 0.0
2017-Feb-13 18:31N 31°36' E 121°27'0 0.0
2017-Feb-13 17:33N 31°36' E 121°27'0 0.0
2017-Feb-13 16:33N 31°36' E 121°27'0 0.0
2017-Feb-13 15:30N 31°36' E 121°27'0 0.0
2017-Feb-13 14:32N 31°36' E 121°27'0 0.0
2017-Feb-13 13:29N 31°36' E 121°27'0 0.0
2017-Feb-13 12:31N 31°36' E 121°27'0 0.0
2017-Feb-13 11:31N 31°36' E 121°27'0 0.0
2017-Feb-13 10:31N 31°36' E 121°27'0 0.0
2017-Feb-13 09:33N 31°36' E 121°27'0 0.0
2017-Feb-13 08:33N 31°36' E 121°27'0 0.0
2017-Feb-13 07:29N 31°36' E 121°27'0 0.0
2017-Feb-13 06:32N 31°36' E 121°27'0 0.0
2017-Feb-13 05:31N 31°36' E 121°27'0 0.0
2017-Feb-13 04:32N 31°36' E 121°27'0 0.0
2017-Feb-13 03:33N 31°36' E 121°27'0 0.0
2017-Feb-13 02:33N 31°36' E 121°27'0 0.0
2017-Feb-13 01:33N 31°36' E 121°27'0 0.0
2017-Feb-13 00:32N 31°36' E 121°27'0 0.1
2017-Feb-12 23:32N 31°36' E 121°27'0 0.0
2017-Feb-12 22:31N 31°36' E 121°27'0 0.1
2017-Feb-12 21:31N 31°36' E 121°27'0 0.0
2017-Feb-12 20:33N 31°36' E 121°27'0 0.0
2017-Feb-12 19:33N 31°36' E 121°27'0 0.0
2017-Feb-12 18:33N 31°36' E 121°27'0 0.0
2017-Feb-12 17:32N 31°36' E 121°27'0 0.0
2017-Feb-12 16:32N 31°36' E 121°27'0 0.0
2017-Feb-12 15:31N 31°36' E 121°27'0 0.0
2017-Feb-12 14:31N 31°36' E 121°27'0 0.0
2017-Feb-12 13:31N 31°36' E 121°27'0 0.0
2017-Feb-12 12:33N 31°36' E 121°27'0 0.0
2017-Feb-12 11:33N 31°36' E 121°27'0 0.0
2017-Feb-12 10:29N 31°36' E 121°27'0 0.0
2017-Feb-12 09:32N 31°36' E 121°27'0 0.0
2017-Feb-12 08:31N 31°36' E 121°27'0 0.0
2017-Feb-12 07:28N 31°36' E 121°27'0 0.0
2017-Feb-12 06:31N 31°36' E 121°27'0 0.0
2017-Feb-12 05:33N 31°36' E 121°27'0 0.0
2017-Feb-12 04:33N 31°36' E 121°27'0 0.0
2017-Feb-12 03:29N 31°36' E 121°27'0 0.0
2017-Feb-12 02:29N 31°36' E 121°27'0 0.0
2017-Feb-12 01:31N 31°36' E 121°27'0 0.0
2017-Feb-12 00:31N 31°36' E 121°27'0 0.0
2017-Feb-11 23:33N 31°36' E 121°27'0 0.0
2017-Feb-11 22:33N 31°36' E 121°27'0 0.0
2017-Feb-11 21:33N 31°36' E 121°27'0 0.0
2017-Feb-11 20:32N 31°36' E 121°27'0 0.0
2017-Feb-11 19:32N 31°36' E 121°27'0 0.0
2017-Feb-11 18:31N 31°36' E 121°27'0 0.0
2017-Feb-11 17:31N 31°36' E 121°27'0 0.0
2017-Feb-11 16:34N 31°36' E 121°27'0 0.0
2017-Feb-11 15:33N 31°36' E 121°27'0 0.0
2017-Feb-11 14:33N 31°36' E 121°27'0 0.0
2017-Feb-11 13:32N 31°36' E 121°27'0 0.0
2017-Feb-11 12:32N 31°36' E 121°27'  

Dump ship's entire track history